createdAt,value
2023-06-27T00:16:07.389Z,81.94
2023-06-27T00:37:51.161Z,81.72
2023-06-27T00:59:37.244Z,81.98
2023-06-27T01:21:25.801Z,81.60
2023-06-27T01:43:13.166Z,82.25
2023-06-27T02:04:56.162Z,81.95
2023-06-27T02:26:39.938Z,82.47
2023-06-27T02:48:23.015Z,82.82
2023-06-27T03:10:07.475Z,83.20
2023-06-27T03:31:50.778Z,83.49
2023-06-27T03:53:35.345Z,82.80
2023-06-27T04:15:18.683Z,82.40
2023-06-27T04:37:02.240Z,82.32
2023-06-27T04:58:45.325Z,81.98
2023-06-27T05:20:28.550Z,80.69
2023-06-27T05:42:11.577Z,79.54
2023-06-27T06:03:54.915Z,76.37
2023-06-27T06:25:38.302Z,74.79
2023-06-27T06:47:21.755Z,73.12
2023-06-27T07:09:05.388Z,70.04
2023-06-27T07:30:48.714Z,67.41
2023-06-27T07:52:31.815Z,64.85
2023-06-27T08:14:15.022Z,60.18
2023-06-27T08:35:58.132Z,58.87
2023-06-27T08:57:43.099Z,57.08
2023-06-27T09:19:28.282Z,54.93
2023-06-27T09:41:12.801Z,53.60
2023-06-27T10:02:56.102Z,53.09
2023-06-27T10:24:42.099Z,53.10
2023-06-27T10:46:26.968Z,54.92
2023-06-27T11:08:14.209Z,57.98
2023-06-27T11:30:04.456Z,57.96
2023-06-27T11:51:47.695Z,54.39
2023-06-27T12:13:33.624Z,40.39
2023-06-27T12:35:18.670Z,35.86
2023-06-27T12:57:02.002Z,38.68
2023-06-27T13:18:46.132Z,34.15
2023-06-27T13:40:30.452Z,29.70
2023-06-27T14:02:13.538Z,37.08
2023-06-27T14:24:16.893Z,35.56
2023-06-27T14:45:59.972Z,34.07
2023-06-27T15:07:42.986Z,34.37
2023-06-27T15:29:26.029Z,33.88
2023-06-27T15:51:09.144Z,38.19
2023-06-27T16:12:52.128Z,41.06
2023-06-27T16:34:39.297Z,41.80
2023-06-27T16:56:26.005Z,43.11
2023-06-27T17:18:09.269Z,45.94
2023-06-27T17:39:52.292Z,49.46
2023-06-27T18:01:35.360Z,50.71
2023-06-27T18:23:18.541Z,53.98
2023-06-27T18:45:01.640Z,54.90
2023-06-27T19:06:51.569Z,54.77
2023-06-27T19:28:36.247Z,57.58
2023-06-27T19:50:19.529Z,58.78
2023-06-27T20:12:02.613Z,59.35
2023-06-27T20:33:45.420Z,60.64
2023-06-27T20:55:28.990Z,61.04
2023-06-27T21:17:15.625Z,62.84
2023-06-27T21:38:58.770Z,63.13
2023-06-27T22:00:42.314Z,62.88
2023-06-27T22:22:25.888Z,62.66
2023-06-27T22:44:09.094Z,64.67
2023-06-27T23:05:52.096Z,65.52
2023-06-27T23:27:36.016Z,66.53
2023-06-27T23:49:18.165Z,67.22
